Time;durP1;ratioP1;P1;durP2;ratioP2;P2;SDS_P1;SDS_P2;PMS_P1;PMS_P2;Temp;Humidity;BMP_temperature;BMP_pressure;BME280_temperature;BME280_humidity;BME280_pressure;Samples;Min_cycle;Max_cycle;Signal;HPM_P1;HPM_P2
2022/04/06 00:02:11;;;;;;;4.40;2.80;;;;;;;4.93;100.00;99319.41;4975851;28;20458;-86
2022/04/06 00:04:42;;;;;;;5.27;2.90;;;;;;;5.13;100.00;99326.88;4963552;28;20053;-84
2022/04/06 00:07:11;;;;;;;5.50;3.07;;;;;;;4.97;100.00;99326.31;4964320;28;20045;-86
2022/04/06 00:09:39;;;;;;;3.93;2.60;;;;;;;4.83;100.00;99313.50;4978138;28;20133;-86
2022/04/06 00:12:07;;;;;;;6.03;2.80;;;;;;;4.83;100.00;99310.88;4972490;28;20041;-86
2022/04/06 00:14:36;;;;;;;4.97;2.63;;;;;;;4.83;100.00;99305.66;4994459;28;20049;-87
2022/04/06 00:17:05;;;;;;;7.63;3.47;;;;;;;4.78;100.00;99310.09;4962355;28;20406;-86
2022/04/06 00:19:33;;;;;;;3.63;2.63;;;;;;;4.76;100.00;99307.50;4977240;28;20466;-88
2022/04/06 00:22:00;;;;;;;3.93;2.47;;;;;;;4.78;100.00;99307.47;4978239;28;20514;-86
2022/04/06 00:24:36;;;;;;;5.03;2.73;;;;;;;4.80;100.00;99310.94;4978387;28;20041;-85
2022/04/06 00:27:06;;;;;;;4.90;2.93;;;;;;;4.76;100.00;99302.28;4962893;28;20526;-87
2022/04/06 00:29:36;;;;;;;3.50;2.23;;;;;;;4.77;100.00;99308.38;4962687;28;20057;-84
2022/04/06 00:32:05;;;;;;;4.57;2.80;;;;;;;4.76;100.00;99298.78;4961910;28;20054;-86
2022/04/06 00:37:26;;;;;;;4.40;2.50;;;;;;;4.84;100.00;99289.06;4987329;28;20049;-87
2022/04/06 00:39:55;;;;;;;5.07;2.60;;;;;;;4.89;100.00;99289.84;4978021;28;20046;-85
2022/04/06 00:42:25;;;;;;;5.63;2.43;;;;;;;4.80;100.00;99296.09;4979377;28;20084;-87
2022/04/06 00:44:53;;;;;;;4.27;2.63;;;;;;;4.78;100.00;99284.78;4960544;28;20053;-86
2022/04/06 00:47:20;;;;;;;4.77;2.77;;;;;;;4.75;100.00;99284.00;4978296;28;20053;-85
2022/04/06 00:49:49;;;;;;;5.53;2.80;;;;;;;4.85;100.00;99280.31;4978063;28;20042;-85
2022/04/06 00:52:16;;;;;;;7.80;3.30;;;;;;;4.83;100.00;99278.63;4980965;28;20033;-85
2022/04/06 00:54:43;;;;;;;4.57;2.83;;;;;;;4.78;100.00;99281.31;4977718;28;20056;-86
2022/04/06 00:57:11;;;;;;;5.40;3.27;;;;;;;4.79;100.00;99280.41;4995008;28;20049;-85
2022/04/06 00:59:38;;;;;;;5.13;2.73;;;;;;;4.83;100.00;99271.63;4977515;28;20045;-86
2022/04/06 01:02:04;;;;;;;5.33;3.27;;;;;;;4.80;100.00;99274.31;4971605;28;20038;-85
2022/04/06 01:04:31;;;;;;;4.77;2.90;;;;;;;4.79;100.00;99268.22;4992609;28;20034;-85
2022/04/06 01:06:58;;;;;;;3.70;2.60;;;;;;;4.82;100.00;99254.22;4960941;28;20048;-85
2022/04/06 01:09:25;;;;;;;5.00;3.00;;;;;;;4.81;100.00;99257.72;4992374;28;20038;-85
2022/04/06 01:11:52;;;;;;;4.40;2.57;;;;;;;4.75;100.00;99260.44;5008673;28;20044;-86
2022/04/06 01:14:19;;;;;;;4.30;2.80;;;;;;;4.83;100.00;99260.31;4992409;28;20038;-85
2022/04/06 01:16:57;;;;;;;3.93;2.60;;;;;;;4.80;100.00;99250.75;4989537;28;20045;-85
2022/04/06 01:19:32;;;;;;;3.97;2.30;;;;;;;4.81;100.00;99252.50;4976814;28;20124;-86
2022/04/06 01:22:00;;;;;;;5.50;2.77;;;;;;;4.82;100.00;99248.13;4977338;28;20475;-86
2022/04/06 01:24:27;;;;;;;5.90;4.00;;;;;;;4.83;100.00;99244.59;4972661;28;20357;-86
2022/04/06 01:26:53;;;;;;;5.60;2.80;;;;;;;4.78;100.00;99252.53;5005425;28;20149;-86
2022/04/06 01:29:20;;;;;;;4.27;2.50;;;;;;;4.80;100.00;99253.38;4992857;28;20487;-86
2022/04/06 01:31:47;;;;;;;4.80;2.90;;;;;;;4.79;100.00;99249.91;4978165;28;20088;-85
2022/04/06 01:34:14;;;;;;;4.83;2.43;;;;;;;4.79;100.00;99249.00;4959521;28;20045;-86
2022/04/06 01:36:40;;;;;;;4.63;2.67;;;;;;;4.80;100.00;99245.53;4961277;28;20054;-86
2022/04/06 01:39:07;;;;;;;3.97;2.37;;;;;;;4.79;100.00;99238.56;4991821;28;20038;-85
2022/04/06 01:41:34;;;;;;;3.97;2.33;;;;;;;4.80;100.00;99245.53;4960960;28;20045;-86
2022/04/06 01:44:01;;;;;;;3.93;2.20;;;;;;;4.80;100.00;99240.31;4993106;28;20046;-88
2022/04/06 01:46:28;;;;;;;4.73;2.73;;;;;;;4.86;100.00;99237.53;4962599;28;20046;-87
2022/04/06 01:54:25;;;;;;;4.40;2.70;;;;;;;4.82;100.00;99238.50;4979245;28;20113;-87
2022/04/06 01:56:52;;;;;;;3.77;2.03;;;;;;;4.86;100.00;99234.91;4961748;28;20057;-86
2022/04/06 01:59:18;;;;;;;5.03;2.77;;;;;;;4.85;100.00;99232.34;4960382;28;20045;-87
2022/04/06 02:01:50;;;;;;;5.17;2.97;;;;;;;4.86;100.00;99226.22;4954866;28;20053;-87
2022/04/06 02:04:17;;;;;;;4.13;2.70;;;;;;;4.90;100.00;99225.28;4974232;28;20430;-86
2022/04/06 02:06:43;;;;;;;3.57;2.50;;;;;;;4.98;100.00;99218.13;4967480;28;20045;-87
2022/04/06 02:09:17;;;;;;;7.80;2.50;;;;;;;4.95;100.00;99229.50;4961744;28;20042;-88
2022/04/06 02:11:44;;;;;;;3.57;2.43;;;;;;;4.87;100.00;99213.09;4974962;28;20233;-88
2022/04/06 02:14:11;;;;;;;4.13;2.30;;;;;;;4.83;100.00;99206.22;4973396;28;20054;-87
2022/04/06 02:16:37;;;;;;;4.97;3.30;;;;;;;4.84;100.00;99200.09;4990580;28;20061;-89
2022/04/06 02:19:07;;;;;;;4.57;3.10;;;;;;;4.83;100.00;99200.97;4989452;22;20043;-80
2022/04/06 02:21:34;;;;;;;4.90;2.87;;;;;;;4.84;100.00;99199.22;4998023;28;20041;-82
2022/04/06 02:24:00;;;;;;;4.67;2.80;;;;;;;4.81;100.00;99194.94;5015356;28;20486;-82
2022/04/06 02:26:27;;;;;;;4.20;2.70;;;;;;;4.88;100.00;99193.91;5015669;28;20042;-82
2022/04/06 02:28:55;;;;;;;4.73;2.97;;;;;;;4.89;100.00;99194.78;5001581;28;20046;-82
2022/04/06 02:31:23;;;;;;;6.00;3.30;;;;;;;4.89;100.00;99187.78;5023676;28;20044;-79
2022/04/06 02:33:49;;;;;;;4.50;2.80;;;;;;;4.87;100.00;99184.31;5014967;28;20125;-80
2022/04/06 02:36:17;;;;;;;4.93;2.90;;;;;;;4.82;100.00;99186.19;5015695;28;20453;-80
2022/04/06 02:38:45;;;;;;;4.60;3.00;;;;;;;4.87;100.00;99180.81;4999302;28;20037;-79
2022/04/06 02:41:11;;;;;;;5.57;3.20;;;;;;;4.86;100.00;99181.72;5011639;28;20049;-82
2022/04/06 02:43:38;;;;;;;4.17;2.67;;;;;;;4.92;100.00;99176.38;5011491;28;20038;-80
2022/04/06 02:46:05;;;;;;;4.07;3.00;;;;;;;4.88;100.00;99167.75;5015009;28;20418;-80
2022/04/06 02:48:32;;;;;;;5.17;3.03;;;;;;;4.90;100.00;99173.78;4995917;28;20141;-80
2022/04/06 02:50:59;;;;;;;5.37;3.10;;;;;;;4.91;100.00;99172.03;5008652;28;20045;-80
2022/04/06 02:53:25;;;;;;;4.70;3.07;;;;;;;4.92;100.00;99173.75;4998741;28;20053;-80
2022/04/06 02:55:52;;;;;;;5.40;4.00;;;;;;;4.92;100.00;99173.75;4999895;28;20398;-79
2022/04/06 02:58:19;;;;;;;6.20;3.33;;;;;;;4.92;100.00;99169.38;5009822;28;20053;-80
2022/04/06 03:00:46;;;;;;;6.33;3.80;;;;;;;5.00;100.00;99162.22;5015604;28;20044;-79
2022/04/06 03:03:12;;;;;;;7.53;4.57;;;;;;;5.03;100.00;99171.75;4998089;28;20160;-83
2022/04/06 03:05:39;;;;;;;7.13;4.30;;;;;;;5.05;100.00;99168.22;5012409;28;20042;-82
2022/04/06 03:08:07;;;;;;;7.33;4.10;;;;;;;5.07;100.00;99169.06;4986176;28;20111;-79
2022/04/06 03:10:34;;;;;;;7.13;4.37;;;;;;;5.09;100.00;99159.41;4996158;28;20046;-81
2022/04/06 03:13:01;;;;;;;9.33;4.90;;;;;;;5.14;100.00;99172.41;5014938;28;20685;-82
2022/04/06 03:15:27;;;;;;;8.80;5.47;;;;;;;5.15;100.00;99162.78;4998372;28;20129;-82
2022/04/06 03:17:54;;;;;;;8.27;5.03;;;;;;;5.19;100.00;99164.44;4990745;28;20566;-80
2022/04/06 03:20:21;;;;;;;9.13;5.47;;;;;;;5.22;100.00;99167.84;5015515;28;20138;-80
2022/04/06 03:22:47;;;;;;;8.07;5.00;;;;;;;5.25;100.00;99159.91;5009366;28;20072;-80
2022/04/06 03:25:14;;;;;;;13.07;6.83;;;;;;;5.31;100.00;99159.78;4987972;28;20415;-80
2022/04/06 03:27:41;;;;;;;10.50;6.73;;;;;;;5.34;100.00;99159.72;5001550;28;20427;-80
2022/04/06 03:30:12;;;;;;;9.43;5.73;;;;;;;5.44;100.00;99165.59;4993281;28;20129;-79
2022/04/06 03:32:40;;;;;;;11.90;6.70;;;;;;;5.61;100.00;99158.19;5012436;28;20109;-80
2022/04/06 03:35:07;;;;;;;14.33;8.00;;;;;;;5.84;100.00;99157.63;5007491;28;20442;-79
2022/04/06 03:37:34;;;;;;;16.17;8.73;;;;;;;5.89;100.00;99155.75;5014000;28;20046;-80
2022/04/06 03:40:01;;;;;;;15.00;9.23;;;;;;;5.92;100.00;99157.47;4985230;28;20042;-80
2022/04/06 03:42:28;;;;;;;17.73;9.33;;;;;;;6.03;100.00;99157.19;5016004;28;20041;-81
2022/04/06 03:44:55;;;;;;;21.40;10.93;;;;;;;6.19;100.00;99150.63;4995373;28;20128;-80
2022/04/06 03:47:30;;;;;;;20.47;9.93;;;;;;;6.24;100.00;99145.28;5030917;28;20517;-82
2022/04/06 03:49:58;;;;;;;20.47;10.50;;;;;;;6.32;100.00;99145.94;5011222;28;20038;-82
2022/04/06 03:52:26;;;;;;;20.47;10.97;;;;;;;6.39;100.00;99137.84;5031990;28;20111;-83
2022/04/06 03:54:53;;;;;;;21.63;11.17;;;;;;;6.43;100.00;99134.22;5013129;28;20045;-83
2022/04/06 03:57:20;;;;;;;26.43;12.13;;;;;;;6.59;100.00;99139.91;5010133;28;20045;-82
2022/04/06 03:59:50;;;;;;;21.97;11.53;;;;;;;6.67;100.00;99148.41;4996929;28;20045;-83
2022/04/06 04:02:17;;;;;;;22.10;13.33;;;;;;;6.74;100.00;99143.84;5006610;28;20042;-80
2022/04/06 04:04:44;;;;;;;28.47;12.83;;;;;;;6.89;100.00;99140.75;5012181;28;20037;-80
2022/04/06 04:07:11;;;;;;;25.03;13.37;;;;;;;6.92;100.00;99143.31;5011847;28;20506;-79
2022/04/06 04:09:37;;;;;;;24.93;13.17;;;;;;;6.86;100.00;99140.84;5001145;28;20044;-80
2022/04/06 04:12:05;;;;;;;26.20;14.20;;;;;;;6.96;100.00;99149.31;5026293;28;20053;-80
2022/04/06 04:14:34;;;;;;;27.47;14.40;;;;;;;7.06;100.00;99142.88;5029596;28;20088;-80
2022/04/06 04:17:02;;;;;;;29.57;15.50;;;;;;;7.09;100.00;99145.44;5028798;28;20565;-80
2022/04/06 04:19:32;;;;;;;27.63;14.13;;;;;;;7.08;100.00;99150.72;4994780;28;20044;-80
2022/04/06 04:21:59;;;;;;;25.80;13.80;;;;;;;7.20;100.00;99155.59;4995157;28;20042;-80
2022/04/06 04:24:25;;;;;;;27.30;15.50;;;;;;;7.21;100.00;99149.44;5003023;28;20041;-80
2022/04/06 04:26:52;;;;;;;27.80;13.17;;;;;;;7.26;100.00;99147.53;4998166;28;20140;-80
2022/04/06 04:29:19;;;;;;;29.20;14.27;;;;;;;7.37;100.00;99155.06;5013272;28;20029;-80
2022/04/06 04:31:46;;;;;;;26.23;14.50;;;;;;;7.36;100.00;99158.59;5014097;28;20057;-79
2022/04/06 04:34:14;;;;;;;23.93;13.00;;;;;;;7.38;100.00;99151.53;5003236;28;20506;-79
2022/04/06 04:36:41;;;;;;;26.93;13.67;;;;;;;7.37;100.00;99140.16;5004389;28;20387;-80
2022/04/06 04:39:07;;;;;;;23.37;13.57;;;;;;;7.42;100.00;99142.66;4995227;28;20041;-81
2022/04/06 04:41:34;;;;;;;25.17;13.83;;;;;;;7.47;100.00;99157.34;4996031;28;20116;-80
2022/04/06 04:44:01;;;;;;;25.67;14.10;;;;;;;7.54;100.00;99158.88;5011634;28;20056;-81
2022/04/06 04:46:28;;;;;;;23.60;13.10;;;;;;;7.50;100.00;99166.91;4998014;28;20042;-80
2022/04/06 04:48:55;;;;;;;22.63;13.23;;;;;;;7.48;100.00;99168.72;5012779;28;20410;-80
2022/04/06 04:51:21;;;;;;;21.73;13.40;;;;;;;7.51;100.00;99169.50;4997159;28;20508;-80
2022/04/06 04:53:48;;;;;;;24.83;14.00;;;;;;;7.50;100.00;99172.19;5012585;28;20111;-80
2022/04/06 04:56:16;;;;;;;26.17;13.13;;;;;;;7.50;100.00;99159.91;4996880;28;20044;-81
2022/04/06 04:58:43;;;;;;;23.07;11.13;;;;;;;7.53;100.00;99158.94;5000069;28;20088;-81
2022/04/06 05:01:10;;;;;;;24.33;12.97;;;;;;;7.56;100.00;99164.94;5000841;28;20414;-79
2022/04/06 05:03:37;;;;;;;25.80;13.30;;;;;;;7.48;100.00;99163.47;5010934;28;20172;-82
2022/04/06 05:06:05;;;;;;;22.43;13.87;;;;;;;7.54;100.00;99166.75;5029158;28;20038;-81
2022/04/06 05:08:32;;;;;;;20.67;11.10;;;;;;;7.54;100.00;99174.63;5009987;28;20045;-81
2022/04/06 05:10:59;;;;;;;18.80;10.97;;;;;;;7.59;100.00;99166.63;5010801;28;20053;-82
2022/04/06 05:13:26;;;;;;;18.77;10.93;;;;;;;7.59;100.00;99174.50;5008872;28;20034;-81
2022/04/06 05:15:53;;;;;;;17.80;10.60;;;;;;;7.58;100.00;99176.28;4998210;28;20061;-81
2022/04/06 05:18:20;;;;;;;19.10;11.77;;;;;;;7.61;100.00;99183.19;5013852;28;20073;-81
2022/04/06 05:20:47;;;;;;;21.77;10.90;;;;;;;7.67;100.00;99176.91;4997538;28;20494;-82
2022/04/06 05:23:15;;;;;;;20.93;11.70;;;;;;;7.62;100.00;99177.88;5004069;28;20045;-83
2022/04/06 05:25:42;;;;;;;17.67;10.73;;;;;;;7.61;100.00;99196.34;5027299;28;20231;-81
2022/04/06 05:28:09;;;;;;;18.00;10.73;;;;;;;7.54;100.00;99193.03;5004972;28;20049;-81
2022/04/06 05:30:38;;;;;;;19.97;11.50;;;;;;;7.56;100.00;99187.72;5009304;28;20057;-82
2022/04/06 05:33:05;;;;;;;22.20;11.53;;;;;;;7.56;100.00;99198.25;5009291;28;20046;-81
2022/04/06 05:35:32;;;;;;;19.63;11.77;;;;;;;7.67;100.00;99190.03;4992994;28;20046;-81
2022/04/06 05:37:59;;;;;;;19.07;11.03;;;;;;;7.68;100.00;99200.50;5014413;28;20096;-82
2022/04/06 05:40:26;;;;;;;17.70;10.87;;;;;;;7.70;100.00;99193.41;4997131;28;20053;-81
2022/04/06 05:42:53;;;;;;;19.13;10.60;;;;;;;7.71;100.00;99189.88;5029511;28;20635;-82
2022/04/06 05:45:20;;;;;;;16.95;9.23;;;;;;;7.75;100.00;99191.50;5000147;28;20050;-82
2022/04/06 05:47:47;;;;;;;18.00;10.23;;;;;;;7.77;100.00;99196.72;4980108;28;20073;-83
2022/04/06 05:50:14;;;;;;;17.43;9.87;;;;;;;7.81;100.00;99196.53;5003830;28;20042;-80
2022/04/06 05:52:42;;;;;;;17.97;9.07;;;;;;;7.73;100.00;99201.19;5012382;28;20046;-80
2022/04/06 05:55:09;;;;;;;19.40;9.63;;;;;;;7.78;100.00;99207.16;5014028;28;20613;-81
2022/04/06 05:57:38;;;;;;;18.73;10.10;;;;;;;7.77;100.00;99200.19;5004411;28;20045;-81
2022/04/06 06:00:08;;;;;;;20.37;9.93;;;;;;;7.76;100.00;99198.47;5014586;28;20045;-80
2022/04/06 06:02:35;;;;;;;15.23;9.17;;;;;;;7.78;100.00;99198.44;5015253;28;20104;-81
2022/04/06 06:05:02;;;;;;;18.07;9.40;;;;;;;7.83;100.00;99209.66;5027721;28;20107;-81
2022/04/06 06:07:29;;;;;;;22.50;10.50;;;;;;;7.86;100.00;99210.41;4999950;28;20042;-80
2022/04/06 06:09:56;;;;;;;18.17;9.57;;;;;;;7.81;100.00;99209.69;4997056;28;20128;-80
2022/04/06 06:12:23;;;;;;;17.30;10.20;;;;;;;7.82;100.00;99206.19;5016086;28;20464;-81
2022/04/06 06:14:50;;;;;;;18.53;10.53;;;;;;;7.90;100.00;99217.31;4999270;28;20033;-81
2022/04/06 06:17:17;;;;;;;17.63;9.53;;;;;;;7.90;100.00;99206.78;5002120;28;20042;-80
2022/04/06 06:19:44;;;;;;;18.00;9.27;;;;;;;7.98;100.00;99211.78;4990022;28;20103;-80
2022/04/06 06:22:10;;;;;;;18.20;10.53;;;;;;;7.96;100.00;99203.06;5013427;28;20077;-81
2022/04/06 06:24:38;;;;;;;20.27;10.37;;;;;;;8.01;100.00;99213.47;4994095;28;20168;-80
2022/04/06 06:27:04;;;;;;;17.80;9.93;;;;;;;8.02;100.00;99223.06;5013747;28;20137;-80
2022/04/06 06:29:32;;;;;;;17.77;10.80;;;;;;;7.99;100.00;99220.50;5002923;28;20042;-80
2022/04/06 06:31:59;;;;;;;18.60;10.83;;;;;;;8.08;100.00;99220.25;5027914;28;20042;-80
2022/04/06 06:34:26;;;;;;;18.13;10.77;;;;;;;8.07;100.00;99222.00;5000329;28;20056;-81
2022/04/06 06:36:53;;;;;;;20.25;11.32;;;;;;;8.06;100.00;99220.25;5029319;28;20061;-80
2022/04/06 06:39:20;;;;;;;19.27;10.23;;;;;;;8.04;100.00;99223.88;4997567;28;20111;-80
2022/04/06 06:41:47;;;;;;;19.90;10.80;;;;;;;8.06;100.00;99216.78;5024711;28;20495;-80
2022/04/06 06:44:14;;;;;;;21.33;11.20;;;;;;;8.08;100.00;99210.56;5013957;28;20517;-81
2022/04/06 06:46:40;;;;;;;17.42;10.52;;;;;;;8.05;100.00;99217.69;5006057;28;20052;-80
2022/04/06 06:49:08;;;;;;;20.37;11.20;;;;;;;8.01;100.00;99210.81;4996069;28;20042;-81
2022/04/06 06:51:35;;;;;;;19.47;11.63;;;;;;;8.05;100.00;99220.31;4997135;28;20132;-80
2022/04/06 06:54:02;;;;;;;20.53;13.07;;;;;;;8.05;100.00;99222.94;4998177;28;20046;-81
2022/04/06 06:56:29;;;;;;;20.95;13.10;;;;;;;8.18;100.00;99211.13;5027714;28;20042;-80
2022/04/06 06:58:55;;;;;;;25.83;13.47;;;;;;;8.17;100.00;99218.16;4995292;28;20105;-80
2022/04/06 07:01:22;;;;;;;24.50;13.50;;;;;;;8.24;100.00;99208.28;5012714;28;20068;-80
2022/04/06 07:03:49;;;;;;;26.40;13.23;;;;;;;8.26;100.00;99210.88;5013365;28;20113;-80
2022/04/06 07:06:16;;;;;;;24.67;15.20;;;;;;;8.38;100.00;99213.94;5032005;28;20041;-81
2022/04/06 07:08:43;;;;;;;24.03;13.07;;;;;;;8.33;100.00;99205.34;5000982;28;20513;-81
2022/04/06 07:11:10;;;;;;;26.83;14.37;;;;;;;8.41;100.00;99216.50;5018235;28;20099;-81
2022/04/06 07:13:37;;;;;;;29.10;14.70;;;;;;;8.44;100.00;99205.84;5005066;28;20080;-81
2022/04/06 07:16:06;;;;;;;27.48;14.68;;;;;;;8.53;100.00;99209.06;5030330;28;20512;-80
2022/04/06 07:18:33;;;;;;;25.00;14.63;;;;;;;8.58;100.00;99205.38;5017491;28;20150;-81
2022/04/06 07:21:01;;;;;;;23.85;14.88;;;;;;;8.56;100.00;99199.28;4998306;28;20058;-81
2022/04/06 07:23:28;;;;;;;23.83;14.17;;;;;;;8.48;100.00;99198.69;5000347;28;20049;-80
2022/04/06 07:25:55;;;;;;;21.85;13.82;;;;;;;8.48;100.00;99187.31;5017624;28;20045;-81
2022/04/06 07:28:21;;;;;;;26.98;14.07;;;;;;;8.53;100.00;99194.13;5016158;28;20095;-80
2022/04/06 07:30:48;;;;;;;27.80;14.85;;;;;;;8.46;100.00;99193.50;5033010;28;20088;-81
2022/04/06 07:33:15;;;;;;;29.38;14.93;;;;;;;8.49;100.00;99187.25;5016766;28;20831;-81
2022/04/06 07:35:42;;;;;;;25.45;15.50;;;;;;;8.49;100.00;99183.75;5018136;28;20049;-81
2022/04/06 07:38:12;;;;;;;24.13;14.77;;;;;;;8.45;100.00;99190.91;5000218;28;20133;-81
2022/04/06 07:40:40;;;;;;;27.45;15.57;;;;;;;8.46;100.00;99182.97;5016992;28;20465;-80
2022/04/06 07:43:09;;;;;;;25.17;14.50;;;;;;;8.42;100.00;99189.25;5015409;28;20065;-81
2022/04/06 07:45:36;;;;;;;29.90;14.18;;;;;;;8.49;100.00;99189.88;4998492;28;20048;-80
2022/04/06 07:48:06;;;;;;;25.45;15.27;;;;;;;8.57;100.00;99189.59;5017524;28;20052;-82
2022/04/06 07:50:33;;;;;;;28.73;17.75;;;;;;;8.74;100.00;99181.97;5027913;28;20061;-81
2022/04/06 07:53:00;;;;;;;27.45;16.50;;;;;;;8.83;100.00;99192.19;5026476;28;20129;-81
2022/04/06 07:55:27;;;;;;;33.75;16.58;;;;;;;8.83;100.00;99184.28;4998269;28;20049;-81
2022/04/06 07:57:53;;;;;;;34.42;19.52;;;;;;;8.86;100.00;99183.31;4982856;28;20045;-81
2022/04/06 08:00:20;;;;;;;33.35;17.02;;;;;;;8.83;100.00;99186.03;5004343;28;20121;-81
2022/04/06 08:02:49;;;;;;;31.17;17.67;;;;;;;8.84;100.00;99187.78;4999947;28;20045;-81
2022/04/06 08:05:17;;;;;;;25.80;17.00;;;;;;;8.79;100.00;99185.28;5012867;28;20049;-81
2022/04/06 08:07:44;;;;;;;27.98;18.45;;;;;;;8.80;100.00;99183.53;5034652;28;20037;-81
2022/04/06 08:10:13;;;;;;;27.15;16.23;;;;;;;8.88;100.00;99182.31;5031815;28;20083;-81
2022/04/06 08:12:40;;;;;;;28.88;16.98;;;;;;;8.85;100.00;99187.72;5033663;28;20077;-81
2022/04/06 08:15:08;;;;;;;31.35;18.17;;;;;;;8.90;100.00;99193.66;5016052;28;20045;-81
2022/04/06 08:17:36;;;;;;;29.90;17.27;;;;;;;8.80;100.00;99189.66;5016153;28;20409;-80
2022/04/06 08:20:05;;;;;;;26.85;16.65;;;;;;;8.77;100.00;99181.88;5030123;28;20499;-81
2022/04/06 08:22:32;;;;;;;31.70;17.73;;;;;;;8.83;100.00;99181.66;5017572;28;20042;-81
2022/04/06 08:24:58;;;;;;;33.45;18.45;;;;;;;8.90;100.00;99182.25;5014700;28;20125;-80
2022/04/06 08:27:46;;;;;;;35.15;18.85;;;;;;;8.98;100.00;99178.41;5027570;28;20521;-80
2022/04/06 08:30:13;;;;;;;33.90;19.02;;;;;;;9.05;100.00;99188.72;5016356;28;20048;-81
2022/04/06 08:32:40;;;;;;;31.83;19.00;;;;;;;9.03;100.00;99189.66;5017063;28;20506;-82
2022/04/06 08:35:08;;;;;;;36.30;19.80;;;;;;;9.07;100.00;99189.53;5015362;28;20041;-81
2022/04/06 08:37:38;;;;;;;30.52;19.02;;;;;;;9.03;100.00;99189.66;5016580;28;20049;-80
2022/04/06 08:40:11;;;;;;;35.83;18.25;;;;;;;9.10;100.00;99185.03;5012139;28;20052;-81
2022/04/06 08:42:39;;;;;;;33.20;19.58;;;;;;;9.33;100.00;99181.47;5012710;28;20045;-82
2022/04/06 08:45:07;;;;;;;33.67;19.65;;;;;;;9.50;100.00;99181.69;4997035;28;20050;-81
2022/04/06 08:47:34;;;;;;;38.90;20.25;;;;;;;9.73;100.00;99185.19;5015674;28;20064;-81
2022/04/06 08:50:03;;;;;;;35.35;20.20;;;;;;;9.84;100.00;99194.38;5009171;28;20038;-82
2022/04/06 09:39:19;;;;;;;24.77;14.15;;;;;;;9.60;100.00;99155.81;5009691;26;20113;-86
2022/04/06 09:42:00;;;;;;;24.85;15.00;;;;;;;9.56;100.00;99155.06;4994718;28;20042;-88
2022/04/06 09:50:17;;;;;;;24.05;12.93;;;;;;;9.48;100.00;99158.94;4990435;28;20038;-86
2022/04/06 09:52:49;;;;;;;20.80;12.85;;;;;;;9.49;100.00;99153.59;4990470;28;20490;-87
2022/04/06 09:55:17;;;;;;;21.77;12.40;;;;;;;9.47;100.00;99147.53;4989727;28;20053;-86
2022/04/06 09:57:51;;;;;;;24.92;13.10;;;;;;;9.49;100.00;99161.50;4974341;28;20042;-86
2022/04/06 10:00:25;;;;;;;20.33;12.27;;;;;;;9.48;100.00;99162.44;4974434;28;20609;-84
2022/04/06 10:03:06;;;;;;;18.52;12.55;;;;;;;9.52;100.00;99155.28;4977339;28;20046;-84
2022/04/06 10:05:35;;;;;;;21.38;13.45;;;;;;;9.51;100.00;99158.84;4973866;28;20050;-87
2022/04/06 10:08:09;;;;;;;19.25;12.05;;;;;;;9.51;100.00;99154.41;4973858;28;20042;-84
2022/04/06 10:10:38;;;;;;;20.17;11.43;;;;;;;9.55;100.00;99160.41;4957741;28;20039;-85
2022/04/06 10:13:05;;;;;;;17.95;11.13;;;;;;;9.54;100.00;99164.81;4975822;28;20045;-84
2022/04/06 10:15:52;;;;;;;20.25;11.82;;;;;;;9.60;100.00;99155.81;4995214;28;20116;-85
2022/04/06 10:18:19;;;;;;;14.65;10.13;;;;;;;9.60;100.00;99163.72;4961147;28;20041;-84
2022/04/06 10:21:18;;;;;;;19.77;10.35;;;;;;;9.57;100.00;99163.84;4978933;28;20053;-85
2022/04/06 10:24:08;;;;;;;18.42;10.27;;;;;;;9.53;100.00;99157.84;4976283;28;20050;-86
2022/04/06 10:26:55;;;;;;;27.92;13.00;;;;;;;9.64;100.00;99167.94;4978033;28;20045;-86
2022/04/06 10:29:21;;;;;;;17.70;11.68;;;;;;;9.67;100.00;99159.94;5006447;28;20125;-86
2022/04/06 10:31:48;;;;;;;19.63;12.52;;;;;;;9.87;100.00;99162.59;4989878;28;20045;-84
2022/04/06 10:34:32;;;;;;;16.70;11.32;;;;;;;9.96;100.00;99152.59;5010065;28;20050;-86
2022/04/06 10:37:07;;;;;;;16.60;11.02;;;;;;;10.04;100.00;99147.84;4998084;28;20411;-86
2022/04/06 10:39:54;;;;;;;16.63;9.70;;;;;;;10.12;100.00;99154.50;4996224;28;20049;-87
2022/04/06 10:42:31;;;;;;;17.33;10.40;;;;;;;10.12;100.00;99145.75;4998422;28;20100;-86
2022/04/06 10:44:57;;;;;;;19.13;10.57;;;;;;;10.06;100.00;99157.41;4981664;28;20045;-87
2022/04/06 10:47:24;;;;;;;18.00;10.23;;;;;;;10.05;100.00;99145.13;4981257;28;20130;-86
2022/04/06 10:50:10;;;;;;;20.00;10.85;;;;;;;10.15;100.00;99141.16;4980857;28;20125;-87
2022/04/06 10:52:37;;;;;;;19.08;11.23;;;;;;;10.24;100.00;99142.59;4993834;28;20050;-85
2022/04/06 10:55:14;;;;;;;23.08;11.30;;;;;;;10.39;100.00;99134.00;4960614;28;20053;-84
2022/04/06 10:58:01;;;;;;;22.27;13.13;;;;;;;10.42;100.00;99131.25;4978246;28;20487;-85
2022/04/06 11:00:28;;;;;;;21.67;12.18;;;;;;;10.41;100.00;99141.84;4961819;28;20117;-86
2022/04/06 11:03:02;;;;;;;16.23;10.15;;;;;;;10.38;100.00;99131.44;4977269;28;20042;-85
2022/04/06 11:05:49;;;;;;;18.08;10.43;;;;;;;10.45;100.00;99132.03;4989742;28;20085;-85
2022/04/06 11:11:47;;;;;;;18.83;10.20;;;;;;;10.41;100.00;99131.28;4996926;28;20046;-88
2022/04/06 11:14:23;;;;;;;15.52;10.70;;;;;;;10.46;100.00;99133.75;4995733;28;20038;-87
2022/04/06 11:16:50;;;;;;;14.77;9.18;;;;;;;10.50;100.00;99135.31;4996400;28;20042;-88
2022/04/06 11:19:17;;;;;;;14.52;9.02;;;;;;;10.41;100.00;99132.16;4979942;28;20046;-88
2022/04/06 11:21:55;;;;;;;16.05;9.70;;;;;;;10.42;100.00;99144.44;4977012;28;20034;-89
2022/04/06 11:24:23;;;;;;;16.80;10.20;;;;;;;10.43;100.00;99150.59;4993725;28;20049;-89
2022/04/06 11:26:51;;;;;;;22.20;10.90;;;;;;;10.49;100.00;99147.66;4996837;28;20124;-87
2022/04/06 11:29:18;;;;;;;16.52;9.90;;;;;;;10.36;100.00;99138.56;4995345;28;20056;-88
2022/04/06 11:31:55;;;;;;;18.40;11.00;;;;;;;10.36;100.00;99136.78;5017447;28;20129;-85
2022/04/06 11:34:48;;;;;;;18.52;11.18;;;;;;;10.23;100.00;99143.50;4995725;28;20052;-88
2022/04/06 11:37:15;;;;;;;16.60;10.73;;;;;;;10.18;100.00;99149.91;4978101;28;20392;-87
2022/04/06 11:39:42;;;;;;;18.45;10.93;;;;;;;10.19;100.00;99151.63;4991462;28;20116;-89
2022/04/06 11:42:15;;;;;;;19.58;10.77;;;;;;;10.23;100.00;99150.59;4988184;28;20034;-88
2022/04/06 11:44:43;;;;;;;17.17;9.73;;;;;;;10.29;100.00;99155.59;4979330;28;20049;-89
2022/04/06 11:47:10;;;;;;;18.35;9.73;;;;;;;10.30;100.00;99139.69;4980242;28;20042;-88
2022/04/06 11:49:37;;;;;;;17.23;9.27;;;;;;;10.27;100.00;99163.59;4979756;28;20050;-89
2022/04/06 11:52:05;;;;;;;16.77;9.45;;;;;;;10.30;100.00;99139.69;4979945;28;20491;-87
2022/04/06 11:54:32;;;;;;;14.18;9.48;;;;;;;10.34;98.17;99133.38;4975476;28;20046;-89
2022/04/06 11:56:59;;;;;;;18.58;9.57;;;;;;;10.35;97.33;99142.16;4989766;28;20046;-87
2022/04/06 11:59:31;;;;;;;14.55;9.20;;;;;;;10.42;96.63;99125.97;4994516;28;20042;-88
2022/04/06 12:01:59;;;;;;;13.48;8.52;;;;;;;10.38;97.16;99126.16;4978967;28;20492;-87
2022/04/06 12:04:26;;;;;;;14.77;9.75;;;;;;;10.39;97.79;99134.00;4981967;28;20042;-89
2022/04/06 12:06:53;;;;;;;19.27;8.82;;;;;;;10.51;96.46;99129.09;4984399;28;20074;-88
2022/04/06 12:09:22;;;;;;;11.55;8.07;;;;;;;10.44;98.00;99128.53;4979207;28;20038;-88
2022/04/06 12:11:50;;;;;;;14.60;9.18;;;;;;;10.54;94.44;99131.63;4995236;28;20056;-89
2022/04/06 12:14:18;;;;;;;15.30;9.07;;;;;;;10.51;94.58;99135.28;4979038;28;20384;-89
2022/04/06 12:16:49;;;;;;;14.73;9.35;;;;;;;10.53;93.57;99114.06;4977465;28;20131;-86
2022/04/06 12:19:18;;;;;;;14.43;9.10;;;;;;;10.50;95.83;99122.09;4980297;28;20073;-89
2022/04/06 12:21:47;;;;;;;12.98;9.05;;;;;;;10.52;93.18;99125.56;4986237;28;20042;-90
2022/04/06 12:24:17;;;;;;;13.30;8.82;;;;;;;10.55;94.18;99122.78;5007972;28;20125;-89
2022/04/06 12:26:45;;;;;;;13.02;8.60;;;;;;;10.51;94.44;99114.16;4992122;28;20170;-90
2022/04/06 12:29:16;;;;;;;11.13;8.23;;;;;;;10.71;94.02;99118.50;4989768;28;20046;-91
2022/04/06 12:31:44;;;;;;;15.75;9.23;;;;;;;11.00;95.29;99114.50;4994450;28;20414;-89
2022/04/06 12:34:31;;;;;;;15.80;8.23;;;;;;;11.19;91.58;99101.31;4992318;28;20046;-90